Time;durP1;ratioP1;P1;durP2;ratioP2;P2;SDS_P1;SDS_P2;PMS_P1;PMS_P2;Temp;Humidity;BMP_temperature;BMP_pressure;BME280_temperature;BME280_humidity;BME280_pressure;Samples;Min_cycle;Max_cycle;Signal;HPM_P1;HPM_P2
2021/10/24 00:00:18;;;;;;;9.25;4.90;;;;;;;9.77;50.09;101065.73;1780875;78;21061;-75
2021/10/24 00:02:46;;;;;;;8.50;4.42;;;;;;;9.80;50.03;101061.27;1797146;78;21034;-75
2021/10/24 00:05:14;;;;;;;9.13;5.00;;;;;;;9.81;49.94;101069.58;1779092;78;21051;-74
2021/10/24 00:07:40;;;;;;;8.15;4.70;;;;;;;9.80;50.10;101063.94;1781397;78;21010;-74
2021/10/24 00:10:09;;;;;;;9.20;4.72;;;;;;;9.79;50.11;101071.66;1783062;79;21644;-74
2021/10/24 00:12:37;;;;;;;7.55;4.78;;;;;;;9.79;50.20;101069.80;1794256;78;21054;-75
2021/10/24 00:15:05;;;;;;;7.83;3.85;;;;;;;9.79;50.26;101063.66;1797908;79;21637;-74
2021/10/24 00:17:32;;;;;;;7.58;4.47;;;;;;;9.80;50.27;101066.07;1798468;78;21139;-74
2021/10/24 00:19:59;;;;;;;10.18;4.55;;;;;;;9.80;50.28;101070.60;1794046;79;21026;-74
2021/10/24 00:22:25;;;;;;;8.83;4.60;;;;;;;9.79;50.24;101071.13;1792323;79;21756;-74
2021/10/24 00:24:52;;;;;;;10.38;4.42;;;;;;;9.79;50.28;101067.13;1771927;78;21126;-74
2021/10/24 00:27:19;;;;;;;10.05;4.67;;;;;;;9.79;50.25;101067.66;1767096;80;21051;-75
2021/10/24 00:29:46;;;;;;;9.40;4.83;;;;;;;9.78;50.43;101063.38;1787888;78;21137;-73
2021/10/24 00:32:13;;;;;;;7.97;4.72;;;;;;;9.78;50.50;101068.72;1777200;79;21034;-74
2021/10/24 00:34:41;;;;;;;11.10;4.37;;;;;;;9.77;50.73;101067.08;1783837;79;21171;-74
2021/10/24 00:37:07;;;;;;;10.35;5.30;;;;;;;9.78;50.77;101068.72;1776989;78;21145;-74
2021/10/24 00:39:36;;;;;;;10.38;4.85;;;;;;;9.79;50.83;101068.99;1773380;79;21510;-74
2021/10/24 00:42:03;;;;;;;9.68;4.62;;;;;;;9.78;51.00;101066.85;1780707;78;21098;-74
2021/10/24 00:44:32;;;;;;;8.50;4.58;;;;;;;9.78;51.29;101067.37;1779417;78;21516;-76
2021/10/24 00:47:01;;;;;;;8.35;4.62;;;;;;;9.79;51.31;101067.13;1779073;78;21168;-74
2021/10/24 00:49:27;;;;;;;7.28;4.42;;;;;;;9.79;51.40;101065.80;1772949;80;21038;-75
2021/10/24 00:51:54;;;;;;;8.40;4.80;;;;;;;9.81;51.41;101069.05;1783585;78;21074;-73
2021/10/24 00:54:24;;;;;;;9.93;4.97;;;;;;;9.80;51.43;101070.08;1781842;79;20980;-73
2021/10/24 00:56:53;;;;;;;8.43;5.20;;;;;;;9.80;51.59;101071.94;1774301;78;21640;-73
2021/10/24 00:59:21;;;;;;;9.13;5.20;;;;;;;9.82;51.67;101081.86;1821651;77;21100;-73
2021/10/24 01:01:48;;;;;;;10.28;5.17;;;;;;;9.81;51.81;101083.72;1797905;77;21015;-74
2021/10/24 01:04:14;;;;;;;8.10;4.50;;;;;;;9.80;51.85;101080.75;1815961;77;21077;-73
2021/10/24 01:06:42;;;;;;;8.95;5.12;;;;;;;9.80;51.93;101077.27;1783486;79;21101;-73
2021/10/24 01:09:14;;;;;;;9.10;5.05;;;;;;;9.79;51.99;101081.80;1813679;79;21534;-74
2021/10/24 01:11:42;;;;;;;8.95;4.62;;;;;;;9.81;51.99;101082.91;1811054;78;21789;-75
2021/10/24 01:14:09;;;;;;;9.15;5.00;;;;;;;9.82;52.07;101077.33;1788394;78;21604;-74
2021/10/24 01:16:40;;;;;;;8.88;5.45;;;;;;;9.84;52.14;101081.11;1818583;78;21073;-74
2021/10/24 01:19:09;;;;;;;9.55;5.17;;;;;;;9.83;52.23;101081.61;1782576;78;20972;-74
2021/10/24 01:21:37;;;;;;;10.13;5.28;;;;;;;9.83;52.44;101092.80;1789197;80;21052;-74
2021/10/24 01:24:05;;;;;;;8.80;5.00;;;;;;;9.83;52.52;101094.14;1767479;80;21174;-74
2021/10/24 01:26:34;;;;;;;10.32;5.20;;;;;;;9.80;52.62;101087.94;1783245;78;21006;-74
2021/10/24 01:29:01;;;;;;;8.65;4.97;;;;;;;9.80;52.63;101091.42;1798321;78;21537;-74
2021/10/24 01:31:28;;;;;;;9.20;5.40;;;;;;;9.77;52.75;101091.92;1752052;79;21101;-74
2021/10/24 01:33:55;;;;;;;9.83;5.53;;;;;;;9.79;52.80;101091.67;1790092;79;21026;-74
2021/10/24 01:36:23;;;;;;;10.45;5.47;;;;;;;9.82;52.88;101097.86;1795694;79;21476;-74
2021/10/24 01:38:51;;;;;;;10.23;5.37;;;;;;;9.81;53.02;101094.92;1788688;78;21034;-73
2021/10/24 01:41:19;;;;;;;8.18;4.72;;;;;;;9.82;53.05;101093.86;1794096;78;21038;-73
2021/10/24 01:43:47;;;;;;;11.48;6.28;;;;;;;9.80;53.22;101093.28;1801467;78;21082;-74
2021/10/24 01:46:14;;;;;;;9.25;5.40;;;;;;;9.79;53.27;101108.48;1783343;79;21062;-74
2021/10/24 01:48:43;;;;;;;9.43;5.60;;;;;;;9.80;53.35;101106.09;1776869;78;21172;-74
2021/10/24 01:51:11;;;;;;;9.88;5.62;;;;;;;9.81;53.40;101110.40;1788112;79;21037;-74
2021/10/24 01:53:40;;;;;;;10.23;5.72;;;;;;;9.83;53.34;101112.81;1784083;79;21066;-74
2021/10/24 01:56:07;;;;;;;9.33;5.67;;;;;;;9.84;53.47;101110.45;1786863;79;21046;-74
2021/10/24 01:58:36;;;;;;;9.85;6.05;;;;;;;9.83;53.50;101108.28;1791616;79;21078;-74
2021/10/24 02:01:04;;;;;;;11.73;6.08;;;;;;;9.86;53.55;101116.34;1775381;80;21951;-74
2021/10/24 02:03:41;;;;;;;9.95;5.40;;;;;;;9.83;53.69;101112.81;1679543;84;21083;-74
2021/10/24 02:06:28;;;;;;;10.32;5.92;;;;;;;9.86;53.70;101115.01;1679325;84;21090;-73
2021/10/24 02:08:55;;;;;;;10.30;6.10;;;;;;;9.83;53.90;101121.63;1687042;83;21726;-73
2021/10/24 02:11:22;;;;;;;10.55;5.50;;;;;;;9.81;53.91;101130.41;1739071;78;21090;-74
2021/10/24 02:13:50;;;;;;;9.45;5.60;;;;;;;9.86;53.90;101131.82;1796930;78;21161;-75
2021/10/24 02:16:18;;;;;;;9.13;5.83;;;;;;;9.88;53.98;101137.47;1799464;77;21027;-75
2021/10/24 02:18:47;;;;;;;8.35;4.85;;;;;;;9.88;53.96;101138.27;1791507;77;21043;-75
2021/10/24 02:21:14;;;;;;;11.35;5.70;;;;;;;9.88;54.01;101139.61;1810386;77;21117;-75
2021/10/24 02:23:41;;;;;;;11.83;5.53;;;;;;;9.86;54.08;101133.16;1780537;80;21055;-76
2021/10/24 02:26:11;;;;;;;8.95;5.25;;;;;;;9.91;54.08;101133.80;1788993;80;21546;-76
2021/10/24 02:28:38;;;;;;;9.08;5.00;;;;;;;9.91;54.12;101136.47;1790134;78;21045;-75
2021/10/24 02:31:06;;;;;;;7.80;4.62;;;;;;;9.92;54.18;101142.08;1795237;77;21591;-75
2021/10/24 02:33:51;;;;;;;8.98;5.17;;;;;;;9.91;54.18;101124.98;1782816;78;21014;-74
2021/10/24 02:36:19;;;;;;;10.75;5.37;;;;;;;9.91;54.23;101145.00;1778681;79;21013;-74
2021/10/24 02:38:48;;;;;;;10.68;5.15;;;;;;;9.89;54.33;101155.89;1797761;78;21588;-74
2021/10/24 02:41:15;;;;;;;9.55;5.90;;;;;;;9.89;54.35;101150.55;1775271;79;21070;-75
2021/10/24 02:43:43;;;;;;;9.23;5.40;;;;;;;9.91;54.48;101152.47;1778641;78;21037;-76
2021/10/24 02:46:10;;;;;;;8.60;4.97;;;;;;;9.90;54.47;101162.84;1797763;78;21117;-76
2021/10/24 02:48:38;;;;;;;7.17;4.62;;;;;;;9.89;54.53;101158.56;1790987;78;21541;-75
2021/10/24 02:51:05;;;;;;;7.60;4.80;;;;;;;9.89;54.57;101173.77;1792372;78;21517;-75
2021/10/24 02:53:32;;;;;;;9.93;5.47;;;;;;;9.87;54.61;101171.31;1752487;79;21510;-76
2021/10/24 02:56:01;;;;;;;9.28;5.10;;;;;;;9.85;54.67;101162.23;1774352;78;21081;-75
2021/10/24 02:58:29;;;;;;;11.48;5.85;;;;;;;9.88;54.63;101165.48;1798982;78;21034;-76
2021/10/24 03:00:56;;;;;;;11.55;5.60;;;;;;;9.88;54.62;101168.95;1781752;78;21003;-75
2021/10/24 03:03:23;;;;;;;8.73;5.08;;;;;;;9.89;54.70;101175.91;1789169;78;21950;-76
2021/10/24 03:05:51;;;;;;;10.43;5.33;;;;;;;9.88;54.72;101165.48;1789216;78;20995;-76
2021/10/24 03:08:19;;;;;;;8.78;5.28;;;;;;;9.91;54.74;101169.02;1775125;78;21075;-78
2021/10/24 03:10:45;;;;;;;9.20;5.75;;;;;;;9.89;54.83;101161.76;1804817;78;21070;-76
2021/10/24 03:13:15;;;;;;;10.80;5.37;;;;;;;9.85;54.81;101172.91;1788208;78;21007;-78
2021/10/24 03:15:44;;;;;;;;;;;;;;;9.85;54.86;101175.57;1789882;78;21134;-76
2021/10/24 03:18:13;;;;;;;9.85;5.22;;;;;;;9.83;54.94;101170.17;1783950;78;20428;-77
2021/10/24 03:20:40;;;;;;;9.50;5.22;;;;;;;9.81;54.96;101166.42;1797324;78;21000;-76
2021/10/24 03:23:07;;;;;;;7.60;4.95;;;;;;;9.79;55.06;101175.17;1792538;78;21029;-77
2021/10/24 03:25:35;;;;;;;8.23;5.65;;;;;;;9.77;55.03;101175.95;1789117;80;20964;-77
2021/10/24 03:28:02;;;;;;;8.85;5.40;;;;;;;9.75;55.11;101174.03;1774045;79;21130;-76
2021/10/24 03:30:30;;;;;;;8.23;4.97;;;;;;;9.73;55.21;101166.78;1802450;79;21031;-76
2021/10/24 03:32:58;;;;;;;9.70;4.97;;;;;;;9.76;55.13;101162.31;1785195;80;21094;-77
2021/10/24 03:35:24;;;;;;;9.80;4.75;;;;;;;9.74;55.07;101165.75;1785383;80;21039;-77
2021/10/24 03:37:52;;;;;;;9.93;5.28;;;;;;;9.70;55.17;101163.25;1781666;79;21054;-77
2021/10/24 03:40:19;;;;;;;10.43;5.30;;;;;;;9.69;55.25;101163.50;1794467;78;21891;-77
2021/10/24 03:42:46;;;;;;;8.18;5.12;;;;;;;9.66;55.31;101165.30;1801201;78;21074;-76
2021/10/24 03:45:14;;;;;;;8.78;5.00;;;;;;;9.66;55.45;101170.64;1757199;80;20955;-77
2021/10/24 03:47:41;;;;;;;9.70;5.58;;;;;;;9.63;55.53;101170.05;1787707;79;21160;-76
2021/10/24 03:50:09;;;;;;;8.93;5.55;;;;;;;9.64;55.52;101178.89;1769347;80;21049;-77
2021/10/24 03:52:36;;;;;;;8.65;5.17;;;;;;;9.66;55.69;101185.30;1771921;78;22183;-75
2021/10/24 03:55:09;;;;;;;9.78;6.00;;;;;;;9.66;55.69;101178.11;1769605;80;21012;-76
2021/10/24 03:57:32;;;;;;;13.32;6.55;;;;;;;9.61;55.64;101178.83;1755514;79;22452;-76
2021/10/24 03:59:59;;;;;;;11.53;6.40;;;;;;;9.62;55.64;101180.44;1784564;79;21100;-77
2021/10/24 04:02:26;;;;;;;10.28;5.28;;;;;;;9.65;55.71;101182.36;1783968;80;20924;-78
2021/10/24 04:04:53;;;;;;;9.25;5.28;;;;;;;9.63;55.81;101175.39;1791743;78;21147;-77
2021/10/24 04:07:19;;;;;;;8.90;5.17;;;;;;;9.61;55.71;101177.49;1780751;79;21543;-75
2021/10/24 04:09:47;;;;;;;11.08;5.75;;;;;;;9.59;55.87;101196.10;1788686;78;21030;-75
2021/10/24 04:12:14;;;;;;;13.30;6.17;;;;;;;9.55;55.99;101189.09;1791806;78;21071;-75
2021/10/24 04:14:41;;;;;;;7.92;5.37;;;;;;;9.50;56.13;101195.64;1801979;78;21055;-77
2021/10/24 04:17:09;;;;;;;8.95;5.53;;;;;;;9.51;56.16;101196.45;1798061;79;21119;-76
2021/10/24 04:19:38;;;;;;;9.03;5.58;;;;;;;9.51;56.18;101193.28;1800679;79;20998;-76
2021/10/24 04:22:05;;;;;;;10.55;6.10;;;;;;;9.51;56.22;101197.28;1775843;79;21051;-77
2021/10/24 04:24:33;;;;;;;10.63;5.55;;;;;;;9.52;56.16;101197.56;1802577;79;20995;-77
2021/10/24 04:27:00;;;;;;;9.83;5.33;;;;;;;9.52;56.24;101194.90;1801828;79;21525;-78
2021/10/24 04:29:26;;;;;;;11.00;6.25;;;;;;;9.51;56.22;101195.95;1781134;78;21063;-77
2021/10/24 04:31:53;;;;;;;10.85;6.05;;;;;;;9.50;56.29;101202.84;1776847;79;21003;-77
2021/10/24 04:34:20;;;;;;;9.13;5.42;;;;;;;9.48;56.35;101204.95;1795336;78;21067;-77
2021/10/24 04:36:47;;;;;;;13.62;5.75;;;;;;;9.48;56.33;101197.75;1801309;79;20971;-77
2021/10/24 04:39:14;;;;;;;10.65;5.78;;;;;;;9.47;56.47;101205.97;1801827;78;21063;-77
2021/10/24 04:41:41;;;;;;;9.60;5.78;;;;;;;9.47;56.46;101206.77;1802247;79;21390;-76
2021/10/24 04:44:08;;;;;;;9.33;5.20;;;;;;;9.47;56.57;101206.77;1780917;79;21063;-79
2021/10/24 04:46:35;;;;;;;9.73;5.83;;;;;;;9.49;56.47;101211.89;1789123;80;21527;-78
2021/10/24 04:49:04;;;;;;;11.78;5.92;;;;;;;9.52;56.58;101219.42;1799395;79;21491;-78
2021/10/24 04:51:33;;;;;;;12.10;6.95;;;;;;;9.55;56.54;101213.10;1788696;79;21037;-77
2021/10/24 04:54:00;;;;;;;11.20;6.83;;;;;;;9.55;56.60;101218.95;1802423;79;21176;-77
2021/10/24 04:56:27;;;;;;;11.75;6.25;;;;;;;9.53;56.66;101223.70;1791019;79;20996;-76
2021/10/24 04:58:54;;;;;;;12.10;6.47;;;;;;;9.55;56.65;101217.09;1770071;78;20992;-76
2021/10/24 05:01:20;;;;;;;12.18;5.70;;;;;;;9.58;56.57;101229.16;1784640;78;21122;-77
2021/10/24 05:03:48;;;;;;;9.75;5.47;;;;;;;9.54;56.50;101224.82;1793544;78;21120;-76
2021/10/24 05:06:15;;;;;;;8.88;5.42;;;;;;;9.53;56.52;101228.51;1790588;78;21928;-76
2021/10/24 05:08:42;;;;;;;10.68;6.17;;;;;;;9.52;56.60;101235.42;1784933;79;20952;-76
2021/10/24 05:11:10;;;;;;;10.72;5.75;;;;;;;9.52;56.69;101242.90;1769609;79;20979;-77
2021/10/24 05:13:39;;;;;;;9.08;5.40;;;;;;;9.54;56.69;101241.31;1811727;78;21033;-76
2021/10/24 05:16:06;;;;;;;9.60;5.28;;;;;;;9.55;56.68;101253.10;1787456;78;21584;-77
2021/10/24 05:18:34;;;;;;;10.08;5.70;;;;;;;9.57;56.74;101255.00;1784397;78;21117;-78
2021/10/24 05:21:01;;;;;;;10.15;5.80;;;;;;;9.56;56.63;101257.38;1786279;80;21081;-77
2021/10/24 05:23:28;;;;;;;9.53;4.67;;;;;;;9.60;56.60;101253.20;1785798;78;21158;-77
2021/10/24 05:25:55;;;;;;;9.38;5.65;;;;;;;9.62;56.60;101261.79;1770500;80;20992;-77
2021/10/24 05:28:22;;;;;;;10.38;5.67;;;;;;;9.66;56.58;101266.66;1779017;79;21082;-76
2021/10/24 05:30:50;;;;;;;9.53;6.00;;;;;;;9.68;56.56;101268.59;1792259;79;21096;-76
2021/10/24 05:33:17;;;;;;;8.85;5.40;;;;;;;9.73;56.58;101278.82;1788123;78;21420;-76
2021/10/24 05:36:01;;;;;;;10.95;5.92;;;;;;;9.71;56.31;101289.46;1794129;79;20990;-77
2021/10/24 05:38:28;;;;;;;11.78;5.65;;;;;;;9.74;56.37;101294.30;1784280;78;21050;-77
2021/10/24 05:40:57;;;;;;;10.60;6.28;;;;;;;9.74;56.45;101299.64;1779413;79;21087;-75
2021/10/24 05:43:24;;;;;;;11.12;5.97;;;;;;;9.76;56.45;101300.23;1785822;78;21786;-75
2021/10/24 05:45:51;;;;;;;10.23;5.72;;;;;;;9.79;56.42;101305.91;1772982;79;21015;-75
2021/10/24 05:48:19;;;;;;;11.97;5.78;;;;;;;9.79;56.24;101305.09;1778847;78;21620;-76
2021/10/24 05:50:48;;;;;;;12.98;6.12;;;;;;;9.77;56.15;101311.18;1774940;79;21028;-77
2021/10/24 05:53:15;;;;;;;13.28;6.55;;;;;;;9.79;56.30;101315.24;1783984;78;21468;-76
2021/10/24 05:55:42;;;;;;;10.15;5.67;;;;;;;9.85;56.28;101313.51;1780858;78;21105;-76
2021/10/24 05:58:08;;;;;;;9.83;5.28;;;;;;;9.88;56.17;101314.38;1781503;78;21058;-76
2021/10/24 06:00:43;;;;;;;9.40;5.15;;;;;;;9.90;56.16;101322.94;1756222;78;21077;-75
2021/10/24 06:03:24;;;;;;;8.13;5.75;;;;;;;9.92;56.17;101318.72;1703422;79;20999;-79
2021/10/24 06:06:07;;;;;;;8.63;5.58;;;;;;;9.94;55.99;101326.80;1727119;81;21171;-75
2021/10/24 06:08:36;;;;;;;11.33;5.78;;;;;;;9.98;55.97;101331.95;1761078;78;21734;-76
2021/10/24 06:11:13;;;;;;;9.93;6.00;;;;;;;10.02;55.77;101333.62;1783038;78;21047;-76
2021/10/24 06:13:35;;;;;;;10.90;6.55;;;;;;;10.09;55.58;101328.44;1781411;78;22393;-76
2021/10/24 06:16:02;;;;;;;10.50;6.15;;;;;;;10.12;55.45;101335.17;1782135;79;21047;-75
2021/10/24 06:18:28;;;;;;;9.38;5.53;;;;;;;10.15;55.42;101338.70;1787533;79;21117;-75
2021/10/24 06:20:55;;;;;;;11.25;5.50;;;;;;;10.19;55.32;101336.38;1792762;78;21091;-75
2021/10/24 06:23:22;;;;;;;10.58;5.37;;;;;;;10.22;55.29;101344.72;1796615;78;21042;-77
2021/10/24 06:25:50;;;;;;;9.63;5.33;;;;;;;10.25;55.10;101338.11;1798002;79;21482;-76
2021/10/24 06:28:17;;;;;;;9.10;5.58;;;;;;;10.26;54.84;101353.11;1799046;78;20955;-76
2021/10/24 06:30:44;;;;;;;9.58;5.15;;;;;;;10.28;54.87;101344.34;1793310;79;21627;-76
2021/10/24 06:33:14;;;;;;;8.88;5.03;;;;;;;10.32;55.01;101345.49;1785109;79;21957;-75
2021/10/24 06:35:42;;;;;;;10.78;5.65;;;;;;;10.37;54.76;101350.95;1789493;80;21069;-75
2021/10/24 06:38:17;;;;;;;8.68;5.25;;;;;;;10.43;54.57;101353.19;1747662;78;20972;-76
2021/10/24 06:40:44;;;;;;;10.15;5.15;;;;;;;10.49;54.36;101344.23;1787830;79;20984;-76
2021/10/24 06:43:13;;;;;;;9.08;5.12;;;;;;;10.47;54.37;101359.17;1744977;80;20964;-76
2021/10/24 06:45:41;;;;;;;9.85;4.58;;;;;;;10.52;54.17;101363.79;1763312;79;20953;-76
2021/10/24 06:48:09;;;;;;;9.20;4.15;;;;;;;10.53;54.09;101366.24;1751972;79;21098;-75
2021/10/24 06:50:54;;;;;;;9.88;4.72;;;;;;;10.55;54.01;101365.99;1764594;79;20979;-76
2021/10/24 06:53:30;;;;;;;7.33;4.17;;;;;;;10.54;54.06;101374.53;1771942;79;21047;-76
2021/10/24 06:56:01;;;;;;;7.33;3.85;;;;;;;10.53;54.06;101374.78;1783142;79;21134;-76
2021/10/24 06:58:45;;;;;;;7.78;4.75;;;;;;;10.52;54.20;101381.96;1668620;84;22015;-74
2021/10/24 07:01:14;;;;;;;8.55;4.90;;;;;;;10.53;54.27;101382.27;1671952;79;21054;-74
2021/10/24 07:04:01;;;;;;;8.98;4.80;;;;;;;10.53;54.19;101388.95;1772949;79;21020;-73
2021/10/24 07:06:33;;;;;;;10.08;4.97;;;;;;;10.54;54.31;101385.75;1772305;79;20996;-73
2021/10/24 07:09:04;;;;;;;7.65;5.20;;;;;;;10.52;54.26;101383.30;1777052;79;21170;-74
2021/10/24 07:11:32;;;;;;;9.58;4.45;;;;;;;10.56;54.24;101389.81;1766706;79;21543;-73
2021/10/24 07:13:59;;;;;;;10.08;4.95;;;;;;;10.56;54.40;101395.16;1775734;79;21530;-73
2021/10/24 07:16:26;;;;;;;9.63;4.92;;;;;;;10.58;54.27;101406.12;1759646;80;21124;-73
2021/10/24 07:18:54;;;;;;;8.40;4.20;;;;;;;10.61;54.12;101393.09;1793886;78;21042;-73
2021/10/24 07:21:21;;;;;;;7.95;4.37;;;;;;;10.64;53.82;101395.30;1775706;80;21065;-73
2021/10/24 07:23:50;;;;;;;8.03;4.42;;;;;;;10.69;53.51;101397.25;1785159;78;21975;-74
2021/10/24 07:26:18;;;;;;;8.65;4.10;;;;;;;10.75;53.25;101400.31;1800216;78;21099;-73
2021/10/24 07:28:45;;;;;;;8.70;4.30;;;;;;;10.79;53.30;101410.31;1801038;78;21091;-73
2021/10/24 07:31:13;;;;;;;8.13;4.12;;;;;;;10.87;53.12;101403.77;1781379;78;22137;-73
2021/10/24 07:33:41;;;;;;;6.20;3.90;;;;;;;10.91;52.84;101413.45;1778513;79;21122;-73
2021/10/24 07:36:10;;;;;;;6.20;3.25;;;;;;;10.93;52.40;101406.83;1768868;79;21131;-74
2021/10/24 07:38:37;;;;;;;5.67;3.08;;;;;;;10.95;52.08;101415.41;1777041;79;21086;-73
2021/10/24 07:41:04;;;;;;;5.05;2.58;;;;;;;10.99;51.72;101419.24;1781580;79;21047;-74
2021/10/24 07:43:32;;;;;;;4.37;2.10;;;;;;;11.04;51.53;101422.00;1778830;80;21026;-74
2021/10/24 07:46:00;;;;;;;3.55;2.20;;;;;;;11.07;51.22;101431.94;1767894;79;20999;-74
2021/10/24 07:48:29;;;;;;;4.30;1.90;;;;;;;11.08;50.71;101427.67;1771458;79;21056;-74
2021/10/24 07:50:57;;;;;;;3.05;1.70;;;;;;;11.07;50.59;101430.07;1776740;79;21015;-74
2021/10/24 07:53:26;;;;;;;4.55;1.80;;;;;;;11.06;50.50;101417.77;1766188;79;21043;-75
2021/10/24 07:55:54;;;;;;;4.92;2.00;;;;;;;11.07;50.75;101419.91;1789801;79;20964;-73
2021/10/24 07:58:28;;;;;;;5.00;1.90;;;;;;;11.07;50.85;101427.93;1788660;80;21082;-75
2021/10/24 08:00:55;;;;;;;4.15;2.10;;;;;;;11.12;50.82;101434.69;1788535;79;21150;-73
2021/10/24 08:03:22;;;;;;;4.10;2.42;;;;;;;11.17;50.92;101428.92;1791303;79;21487;-74
2021/10/24 08:05:49;;;;;;;4.58;2.10;;;;;;;11.24;50.88;101430.92;1774995;79;21036;-74
2021/10/24 08:08:17;;;;;;;5.58;2.45;;;;;;;11.28;50.85;101433.39;1773127;80;21015;-73
2021/10/24 08:10:44;;;;;;;4.95;2.40;;;;;;;11.27;50.54;101430.44;1787892;79;21024;-74
2021/10/24 08:13:11;;;;;;;4.50;2.20;;;;;;;11.25;50.64;101431.73;1790682;80;21150;-74
2021/10/24 08:15:38;;;;;;;4.12;2.40;;;;;;;11.23;50.71;101448.03;1790118;80;21612;-75
2021/10/24 08:18:08;;;;;;;5.30;2.47;;;;;;;11.17;50.30;101435.61;1790727;79;21007;-74
2021/10/24 08:20:36;;;;;;;5.20;2.60;;;;;;;11.13;50.16;101431.80;1786920;80;20960;-74
2021/10/24 08:23:03;;;;;;;5.17;2.70;;;;;;;11.18;50.66;101447.92;1785981;79;21038;-74
2021/10/24 08:25:30;;;;;;;4.15;2.30;;;;;;;11.29;50.35;101443.59;1790554;79;21117;-75
2021/10/24 08:27:59;;;;;;;4.00;2.30;;;;;;;11.38;50.49;101443.47;1789460;78;20992;-75
2021/10/24 08:30:36;;;;;;;4.40;2.00;;;;;;;11.48;49.88;101453.03;1697764;83;20999;-73
2021/10/24 08:33:15;;;;;;;4.83;2.45;;;;;;;11.51;49.35;101451.19;1770232;79;38209;-75
2021/10/24 08:35:42;;;;;;;5.40;2.27;;;;;;;11.55;49.17;101441.34;1790531;80;21090;-74
2021/10/24 08:38:09;;;;;;;3.92;2.35;;;;;;;11.53;48.91;101454.17;1788768;79;21498;-73
2021/10/24 08:40:36;;;;;;;6.22;2.92;;;;;;;11.52;48.73;101457.37;1790256;79;21004;-74
2021/10/24 08:43:13;;;;;;;7.15;2.72;;;;;;;11.51;49.06;101451.19;1785346;79;21498;-73
2021/10/24 08:45:31;;;;;;;5.25;2.50;;;;;;;11.56;49.18;101459.84;1775219;79;21497;-73
2021/10/24 08:47:58;;;;;;;6.42;2.52;;;;;;;11.61;49.18;101461.25;1775148;78;21106;-74
2021/10/24 08:50:25;;;;;;;4.12;2.20;;;;;;;11.68;48.77;101455.75;1767417;80;21163;-75
2021/10/24 08:52:52;;;;;;;5.35;2.40;;;;;;;11.70;48.62;101456.33;1799398;78;21747;-75
2021/10/24 08:55:19;;;;;;;4.58;2.22;;;;;;;11.73;48.48;101452.64;1801609;77;21568;-74
2021/10/24 08:57:48;;;;;;;4.00;2.40;;;;;;;11.79;48.12;101461.58;1775769;79;21042;-73
2021/10/24 09:00:14;;;;;;;4.30;1.92;;;;;;;11.84;47.72;101471.04;1787157;78;20951;-74
2021/10/24 09:02:59;;;;;;;6.08;2.00;;;;;;;11.84;47.08;101465.69;1765622;79;22109;-75
2021/10/24 09:05:43;;;;;;;4.00;1.80;;;;;;;11.83;46.75;101472.07;1776300;79;20990;-74
2021/10/24 09:08:17;;;;;;;4.25;2.08;;;;;;;11.82;46.62;101471.80;1785889;78;21101;-74
2021/10/24 09:10:49;;;;;;;3.25;1.72;;;;;;;11.76;46.60;101490.16;1787947;80;21059;-74
2021/10/24 09:13:22;;;;;;;5.30;2.35;;;;;;;11.66;46.82;101473.40;1788001;78;21141;-73
2021/10/24 09:16:06;;;;;;;2.83;1.62;;;;;;;11.59;46.94;101469.27;1775032;78;21132;-74
2021/10/24 09:18:43;;;;;;;3.70;1.70;;;;;;;11.57;47.00;101464.14;1786874;80;21047;-74
2021/10/24 09:21:20;;;;;;;3.30;1.90;;;;;;;11.54;46.94;101463.81;1781584;80;21042;-74
2021/10/24 09:23:54;;;;;;;5.05;1.60;;;;;;;11.59;46.54;101466.59;1785783;80;21553;-73
2021/10/24 09:26:27;;;;;;;4.20;1.60;;;;;;;11.64;46.21;101477.36;1783333;79;21039;-74
2021/10/24 09:29:15;;;;;;;3.10;1.50;;;;;;;11.75;46.03;101469.81;1787670;78;21163;-74
2021/10/24 09:31:52;;;;;;;2.90;1.57;;;;;;;11.85;45.96;101466.52;1812452;77;21000;-74
2021/10/24 09:34:24;;;;;;;3.62;1.52;;;;;;;11.95;45.77;101464.81;1782026;79;21083;-74
2021/10/24 09:37:00;;;;;;;5.30;1.80;;;;;;;12.00;44.70;101465.41;1764344;79;21047;-76
2021/10/24 09:39:46;;;;;;;2.72;1.45;;;;;;;11.95;44.60;101464.01;1793554;78;20948;-75
2021/10/24 09:42:22;;;;;;;3.27;1.90;;;;;;;11.86;44.87;101473.49;1795507;78;21122;-74
2021/10/24 09:45:10;;;;;;;4.97;1.92;;;;;;;11.76;44.99;101476.78;1797700;78;21077;-76
2021/10/24 09:47:39;;;;;;;3.50;1.70;;;;;;;11.66;45.22;101520.77;1785877;78;21031;-74
2021/10/24 09:50:08;;;;;;;4.60;1.50;;;;;;;11.37;50.04;101506.05;1787044;78;20998;-74
2021/10/24 09:52:37;;;;;;;2.87;1.27;;;;;;;10.93;52.06;101519.62;1800927;78;21000;-75
2021/10/24 09:55:17;;;;;;;2.47;1.30;;;;;;;10.52;53.82;101523.53;1813846;78;21117;-74
2021/10/24 09:57:47;;;;;;;3.58;1.60;;;;;;;10.16;55.15;101525.05;1805353;77;20999;-74
2021/10/24 10:00:14;;;;;;;3.35;1.47;;;;;;;9.94;56.05;101520.80;1781821;78;21491;-74
2021/10/24 10:02:42;;;;;;;2.85;1.40;;;;;;;9.82;56.23;101523.42;1809184;78;21531;-74
2021/10/24 10:05:09;;;;;;;4.60;1.70;;;;;;;9.80;56.32;101529.50;1782138;78;21617;-74
2021/10/24 10:07:36;;;;;;;3.65;1.70;;;;;;;9.80;56.24;101526.30;1799490;78;21181;-74
2021/10/24 10:10:04;;;;;;;4.47;1.60;;;;;;;9.84;55.87;101524.83;1793822;78;21012;-73
2021/10/24 10:12:34;;;;;;;4.22;1.75;;;;;;;9.90;55.03;101535.09;1759837;79;21517;-74
2021/10/24 10:15:02;;;;;;;4.78;2.00;;;;;;;9.93;54.54;101523.96;1767782;78;21057;-73
2021/10/24 10:17:30;;;;;;;4.70;1.92;;;;;;;9.99;54.20;101527.58;1787792;78;20971;-75
2021/10/24 10:19:59;;;;;;;5.62;1.95;;;;;;;10.05;53.71;101525.33;1762096;79;21160;-74
2021/10/24 10:22:31;;;;;;;4.42;1.98;;;;;;;10.04;53.63;101523.19;1737632;80;21446;-74
2021/10/24 10:25:07;;;;;;;4.10;2.15;;;;;;;10.06;53.51;101522.42;1788609;78;21043;-74
2021/10/24 10:27:40;;;;;;;5.40;2.45;;;;;;;10.09;53.20;101522.48;1819648;77;21537;-73
2021/10/24 10:30:33;;;;;;;4.83;2.30;;;;;;;10.15;52.92;101531.45;1778927;78;21027;-75
2021/10/24 10:33:00;;;;;;;4.60;2.00;;;;;;;10.23;52.79;101524.42;1780296;78;21146;-74
2021/10/24 10:35:27;;;;;;;4.90;2.12;;;;;;;10.35;52.72;101519.13;1776447;78;20944;-73
2021/10/24 10:38:03;;;;;;;3.77;2.50;;;;;;;10.45;52.73;101525.51;1781806;78;21111;-74
2021/10/24 10:40:38;;;;;;;4.92;2.37;;;;;;;10.52;52.63;101522.20;1765825;79;21029;-73
2021/10/24 10:43:20;;;;;;;3.65;2.33;;;;;;;10.62;52.45;101518.13;1768899;80;21199;-78
2021/10/24 10:45:58;;;;;;;4.75;2.45;;;;;;;10.66;52.03;101526.80;1779106;79;21138;-75
2021/10/24 10:48:41;;;;;;;4.95;2.35;;;;;;;10.71;51.97;101524.75;1774460;79;21031;-76
2021/10/24 10:51:25;;;;;;;4.72;2.30;;;;;;;10.75;51.88;101527.23;1779474;79;21134;-75
2021/10/24 10:53:57;;;;;;;4.80;2.30;;;;;;;10.81;51.70;101523.64;1775215;79;21095;-76
2021/10/24 10:56:42;;;;;;;3.67;2.30;;;;;;;10.89;51.37;101522.45;1779157;79;21075;-75
2021/10/24 10:59:13;;;;;;;5.00;2.40;;;;;;;10.92;51.11;101531.34;1779872;79;21843;-77
2021/10/24 11:01:40;;;;;;;;;;;;;;;10.94;51.07;101528.73;1791202;79;21064;-77
2021/10/24 11:04:13;;;;;;;5.25;2.65;;;;;;;10.96;51.37;101537.86;1788123;79;20426;-76
2021/10/24 11:06:55;;;;;;;4.47;2.30;;;;;;;10.96;51.53;101533.86;1785580;79;22156;-76
2021/10/24 11:09:46;;;;;;;4.62;2.75;;;;;;;10.96;50.93;101533.33;1788163;79;21050;-74
2021/10/24 11:12:39;;;;;;;4.58;2.83;;;;;;;10.96;50.87;101532.52;1779287;79;21135;-75
2021/10/24 11:15:12;;;;;;;4.70;2.42;;;;;;;10.93;50.73;101536.47;1788104;79;21103;-76
2021/10/24 11:17:44;;;;;;;4.70;2.58;;;;;;;11.01;50.07;101536.09;1786504;79;21018;-76
2021/10/24 11:20:20;;;;;;;4.37;2.35;;;;;;;11.12;49.72;101535.80;1789989;79;21028;-78
2021/10/24 11:22:54;;;;;;;4.12;2.10;;;;;;;11.23;49.05;101537.61;1781836;79;21593;-76
2021/10/24 11:25:29;;;;;;;3.30;1.70;;;;;;;11.33;48.13;101542.88;1769866;79;21964;-77
2021/10/24 11:27:58;;;;;;;4.70;1.95;;;;;;;11.41;47.40;101551.86;1771228;80;20996;-76
2021/10/24 11:30:25;;;;;;;3.35;1.80;;;;;;;11.42;46.65;101538.26;1767922;79;20999;-77
2021/10/24 11:32:53;;;;;;;4.40;1.98;;;;;;;11.40;46.06;101549.71;1774725;80;21550;-80
2021/10/24 11:35:21;;;;;;;3.58;1.57;;;;;;;11.35;45.85;101544.28;1775153;79;21043;-79
2021/10/24 11:37:59;;;;;;;2.70;1.35;;;;;;;11.30;44.99;101556.20;1781005;80;21126;-77
2021/10/24 11:40:31;;;;;;;4.20;1.80;;;;;;;11.23;44.49;101550.18;1771402;79;22065;-73